createdAt,value
2019-03-03T00:00:03.536Z,942.56
2019-03-03T00:01:03.445Z,942.56
2019-03-03T00:02:03.337Z,942.53
2019-03-03T00:03:03.256Z,942.47
2019-03-03T00:04:03.156Z,942.51
2019-03-03T00:05:03.045Z,942.48
2019-03-03T00:06:02.950Z,942.42
2019-03-03T00:07:02.847Z,942.46
2019-03-03T00:08:02.750Z,942.49
2019-03-03T00:09:02.666Z,942.41
2019-03-03T00:10:02.550Z,942.41
2019-03-03T00:11:02.455Z,942.48
2019-03-03T00:12:02.465Z,942.42
2019-03-03T00:13:02.255Z,942.42
2019-03-03T00:14:02.172Z,942.42
2019-03-03T00:15:02.065Z,942.44
2019-03-03T00:16:01.965Z,942.40
2019-03-03T00:17:01.865Z,942.41
2019-03-03T00:18:01.763Z,942.39
2019-03-03T00:19:01.786Z,942.36
2019-03-03T00:20:01.567Z,942.38
2019-03-03T00:21:01.466Z,942.37
2019-03-03T00:22:01.368Z,942.38
2019-03-03T00:23:01.268Z,942.37
2019-03-03T00:24:01.188Z,942.35
2019-03-03T00:25:01.074Z,942.33
2019-03-03T00:26:01.078Z,942.37
2019-03-03T00:27:00.875Z,942.34
2019-03-03T00:28:00.776Z,942.36
2019-03-03T00:29:00.695Z,942.35
2019-03-03T00:30:00.604Z,942.35
2019-03-03T00:31:00.527Z,942.42
2019-03-03T00:32:00.386Z,942.35
2019-03-03T00:33:00.389Z,942.37
2019-03-03T00:34:00.205Z,942.38
2019-03-03T00:35:00.172Z,942.34
2019-03-03T00:35:59.988Z,942.34
2019-03-03T00:36:59.892Z,942.37
2019-03-03T00:37:59.796Z,942.42
2019-03-03T00:38:59.708Z,942.43
2019-03-03T00:39:59.697Z,942.38
2019-03-03T00:40:59.498Z,942.41
2019-03-03T00:41:59.396Z,942.38
2019-03-03T00:42:59.302Z,942.32
2019-03-03T00:43:59.218Z,942.33
2019-03-03T00:44:59.104Z,942.32
2019-03-03T00:45:59.001Z,942.36
2019-03-03T00:46:59.011Z,942.29
2019-03-03T00:47:58.805Z,942.30
2019-03-03T00:48:58.722Z,942.32
2019-03-03T00:49:58.610Z,942.29
2019-03-03T00:50:58.515Z,942.30
2019-03-03T00:51:58.413Z,942.33
2019-03-03T00:52:58.313Z,942.27
2019-03-03T00:53:58.233Z,942.29
2019-03-03T00:54:58.116Z,942.26
2019-03-03T00:55:58.016Z,942.31
2019-03-03T00:56:57.921Z,942.26
2019-03-03T00:57:57.819Z,942.26
2019-03-03T00:58:57.737Z,942.31
2019-03-03T00:59:57.623Z,942.28
2019-03-03T01:00:57.544Z,942.27
2019-03-03T01:01:57.422Z,942.26
2019-03-03T01:02:57.326Z,942.28
2019-03-03T01:03:57.245Z,942.25
2019-03-03T01:04:57.126Z,942.26
2019-03-03T01:05:57.030Z,942.22
2019-03-03T01:06:56.935Z,942.29
2019-03-03T01:07:56.831Z,942.29
2019-03-03T01:08:56.791Z,942.29
2019-03-03T01:09:56.641Z,942.32
2019-03-03T01:10:56.533Z,942.29
2019-03-03T01:11:56.469Z,942.30
2019-03-03T01:12:56.342Z,942.26
2019-03-03T01:13:56.256Z,942.28
2019-03-03T01:14:56.143Z,942.31
2019-03-03T01:15:56.041Z,942.28
2019-03-03T01:16:55.945Z,942.28
2019-03-03T01:17:55.843Z,942.33
2019-03-03T01:18:55.762Z,942.34
2019-03-03T01:19:55.661Z,942.26
2019-03-03T01:20:55.551Z,942.32
2019-03-03T01:21:55.448Z,942.33
2019-03-03T01:22:55.351Z,942.26
2019-03-03T01:23:55.269Z,942.23
2019-03-03T01:24:55.152Z,942.29
2019-03-03T01:25:55.058Z,942.24
2019-03-03T01:26:54.954Z,942.24
2019-03-03T01:27:54.860Z,942.26
2019-03-03T01:28:54.778Z,942.08
2019-03-03T01:29:54.661Z,942.17
2019-03-03T01:30:54.564Z,942.18
2019-03-03T01:31:54.780Z,942.21
2019-03-03T01:32:54.364Z,942.24
2019-03-03T01:33:54.264Z,942.18
2019-03-03T01:34:54.185Z,942.19
2019-03-03T01:35:54.065Z,942.18
2019-03-03T01:36:53.968Z,942.15
2019-03-03T01:37:53.868Z,942.15
2019-03-03T01:38:53.776Z,942.10
2019-03-03T01:39:53.693Z,942.16
2019-03-03T01:40:53.574Z,942.14
2019-03-03T01:41:53.475Z,942.17
2019-03-03T01:42:53.375Z,942.18
2019-03-03T01:43:53.392Z,942.16
2019-03-03T01:44:53.196Z,942.17
2019-03-03T01:45:53.080Z,942.20
2019-03-03T01:46:52.982Z,942.21
2019-03-03T01:47:52.880Z,942.16
2019-03-03T01:48:52.803Z,942.20
2019-03-03T01:49:52.699Z,942.12
2019-03-03T01:50:52.692Z,942.17
2019-03-03T01:51:52.492Z,942.15
2019-03-03T01:52:52.391Z,942.16
2019-03-03T01:53:52.292Z,942.15
2019-03-03T01:54:52.207Z,942.16
2019-03-03T01:55:52.091Z,942.16
2019-03-03T01:56:52.121Z,942.14
2019-03-03T01:57:51.896Z,942.11
2019-03-03T01:58:51.845Z,942.09
2019-03-03T01:59:51.713Z,942.09
2019-03-03T02:00:51.600Z,942.14
2019-03-03T02:01:51.498Z,942.09
2019-03-03T02:02:51.404Z,942.08
2019-03-03T02:03:51.309Z,942.09
2019-03-03T02:04:51.219Z,942.09
2019-03-03T02:05:51.110Z,942.09
2019-03-03T02:06:51.009Z,942.11
2019-03-03T02:07:50.907Z,942.09
2019-03-03T02:08:50.812Z,942.08
2019-03-03T02:09:50.729Z,942.06
2019-03-03T02:10:50.613Z,942.07
2019-03-03T02:11:50.512Z,942.03
2019-03-03T02:12:50.415Z,942.09
2019-03-03T02:13:50.314Z,942.07
2019-03-03T02:14:50.235Z,942.07
2019-03-03T02:15:50.120Z,942.09
2019-03-03T02:16:50.024Z,942.11
2019-03-03T02:17:49.922Z,942.04
2019-03-03T02:18:49.822Z,942.10
2019-03-03T02:19:49.740Z,942.09
2019-03-03T02:20:49.626Z,942.08
2019-03-03T02:21:49.526Z,942.09
2019-03-03T02:22:49.428Z,942.12
2019-03-03T02:23:49.330Z,942.08
2019-03-03T02:24:49.246Z,942.12
2019-03-03T02:25:49.133Z,942.09
2019-03-03T02:26:49.034Z,942.06
2019-03-03T02:27:48.936Z,942.10
2019-03-03T02:28:48.837Z,942.09
2019-03-03T02:29:48.758Z,942.07
2019-03-03T02:30:48.640Z,942.11
2019-03-03T02:31:48.544Z,942.11
2019-03-03T02:32:48.443Z,942.09
2019-03-03T02:33:48.343Z,941.98
2019-03-03T02:34:48.261Z,942.11
2019-03-03T02:35:48.146Z,942.09
2019-03-03T02:36:48.749Z,942.11
2019-03-03T02:37:47.949Z,942.05
2019-03-03T02:38:47.851Z,942.06
2019-03-03T02:39:47.770Z,942.06
2019-03-03T02:40:47.656Z,942.08
2019-03-03T02:41:47.555Z,942.11
2019-03-03T02:42:47.460Z,942.03
2019-03-03T02:43:47.360Z,942.05
2019-03-03T02:44:47.278Z,942.06
2019-03-03T02:45:47.158Z,942.02
2019-03-03T02:46:47.061Z,942.04
2019-03-03T02:47:46.960Z,942.03
2019-03-03T02:48:46.865Z,942.00
2019-03-03T02:49:46.785Z,942.05
2019-03-03T02:50:46.668Z,942.05
2019-03-03T02:51:46.569Z,942.07
2019-03-03T02:52:46.471Z,942.10
2019-03-03T02:53:46.367Z,942.11
2019-03-03T02:54:46.289Z,942.12
2019-03-03T02:55:46.176Z,942.12
2019-03-03T02:56:46.077Z,942.07
2019-03-03T02:57:45.981Z,942.09
2019-03-03T02:58:45.875Z,942.07
2019-03-03T02:59:45.898Z,942.08
2019-03-03T03:00:45.680Z,942.11
2019-03-03T03:01:45.581Z,942.11
2019-03-03T03:02:45.484Z,942.13
2019-03-03T03:03:45.384Z,942.10
2019-03-03T03:04:45.307Z,942.11
2019-03-03T03:05:45.204Z,942.13
2019-03-03T03:06:45.086Z,942.15
2019-03-03T03:07:45.009Z,942.17
2019-03-03T03:08:44.892Z,942.22
2019-03-03T03:09:44.810Z,942.18
2019-03-03T03:10:44.702Z,942.13
2019-03-03T03:11:44.591Z,942.16
2019-03-03T03:12:44.499Z,942.16
2019-03-03T03:13:44.507Z,942.13
2019-03-03T03:14:44.299Z,942.17
2019-03-03T03:15:44.219Z,942.19
2019-03-03T03:16:44.101Z,942.15
2019-03-03T03:17:44.003Z,942.17
2019-03-03T03:18:43.903Z,942.16
2019-03-03T03:19:43.826Z,942.15
2019-03-03T03:20:43.813Z,942.19
2019-03-03T03:21:43.610Z,942.15
2019-03-03T03:22:43.509Z,942.15
2019-03-03T03:23:43.408Z,942.18
2019-03-03T03:24:43.332Z,942.21
2019-03-03T03:25:43.227Z,942.18
2019-03-03T03:26:43.111Z,942.21
2019-03-03T03:27:43.120Z,942.19
2019-03-03T03:28:42.916Z,942.18
2019-03-03T03:29:42.823Z,942.19
2019-03-03T03:30:42.734Z,942.17
2019-03-03T03:31:42.620Z,942.17
2019-03-03T03:32:42.520Z,942.20
2019-03-03T03:33:42.422Z,942.14
2019-03-03T03:34:42.458Z,942.15
2019-03-03T03:35:42.239Z,942.14
2019-03-03T03:36:42.127Z,942.14
2019-03-03T03:37:42.031Z,942.13
2019-03-03T03:38:41.927Z,942.15
2019-03-03T03:39:41.836Z,942.09
2019-03-03T03:40:41.747Z,942.15
2019-03-03T03:41:41.740Z,942.13
2019-03-03T03:42:41.535Z,942.09
2019-03-03T03:43:41.454Z,942.11
2019-03-03T03:44:41.338Z,942.10
2019-03-03T03:45:41.259Z,942.10
2019-03-03T03:46:41.144Z,942.10
2019-03-03T03:47:41.041Z,942.09
2019-03-03T03:48:41.049Z,942.09
2019-03-03T03:49:40.839Z,942.04
2019-03-03T03:50:40.757Z,942.07
2019-03-03T03:51:40.654Z,942.09
2019-03-03T03:52:40.545Z,942.03
2019-03-03T03:53:40.446Z,941.98
2019-03-03T03:54:40.348Z,941.95
2019-03-03T03:55:40.373Z,941.98
2019-03-03T03:56:40.153Z,941.99
2019-03-03T03:57:40.050Z,941.99
2019-03-03T03:58:40.038Z,942.02
2019-03-03T03:59:39.855Z,941.98
2019-03-03T04:00:39.782Z,942.02
2019-03-03T04:01:39.656Z,941.93
2019-03-03T04:02:39.664Z,941.99
2019-03-03T04:03:39.459Z,941.93
2019-03-03T04:04:39.360Z,941.94
2019-03-03T04:05:39.279Z,941.96
2019-03-03T04:06:39.162Z,941.91
2019-03-03T04:07:39.068Z,941.92
2019-03-03T04:08:38.965Z,941.94
2019-03-03T04:09:38.972Z,941.92
2019-03-03T04:10:38.794Z,941.95
2019-03-03T04:11:38.669Z,941.95
2019-03-03T04:12:38.585Z,941.87
2019-03-03T04:13:38.493Z,941.94
2019-03-03T04:14:38.374Z,941.94
2019-03-03T04:15:38.291Z,941.89
2019-03-03T04:16:38.291Z,941.85
2019-03-03T04:17:38.079Z,941.91
2019-03-03T04:18:37.982Z,941.82
2019-03-03T04:19:37.883Z,941.86
2019-03-03T04:20:37.801Z,941.90
2019-03-03T04:21:37.684Z,941.80
2019-03-03T04:22:37.712Z,941.85
2019-03-03T04:23:37.487Z,941.82
2019-03-03T04:24:37.397Z,941.82
2019-03-03T04:25:37.305Z,941.83
2019-03-03T04:26:37.200Z,941.83
2019-03-03T04:27:37.091Z,941.86
2019-03-03T04:28:36.995Z,941.81
2019-03-03T04:29:36.892Z,941.78
2019-03-03T04:30:36.913Z,941.78
2019-03-03T04:31:36.709Z,941.82
2019-03-03T04:32:36.605Z,941.83
2019-03-03T04:33:36.500Z,941.84
2019-03-03T04:34:36.399Z,941.81
2019-03-03T04:35:36.317Z,941.77
2019-03-03T04:36:36.310Z,941.78
2019-03-03T04:37:36.107Z,941.85
2019-03-03T04:38:36.007Z,941.79
2019-03-03T04:39:35.907Z,941.78
2019-03-03T04:40:35.825Z,941.82
2019-03-03T04:41:35.712Z,941.83
2019-03-03T04:42:35.611Z,941.81
2019-03-03T04:43:35.512Z,941.74
2019-03-03T04:44:35.413Z,941.78
2019-03-03T04:45:35.335Z,941.81
2019-03-03T04:46:35.216Z,941.74
2019-03-03T04:47:35.118Z,941.77
2019-03-03T04:48:35.021Z,941.69
2019-03-03T04:49:34.921Z,941.77
2019-03-03T04:50:34.843Z,941.73
2019-03-03T04:51:34.727Z,941.75
2019-03-03T04:52:34.639Z,941.77
2019-03-03T04:53:34.530Z,941.78
2019-03-03T04:54:34.434Z,941.71
2019-03-03T04:55:34.353Z,941.70
2019-03-03T04:56:34.234Z,941.73
2019-03-03T04:57:34.134Z,941.75
2019-03-03T04:58:34.032Z,941.76
2019-03-03T04:59:33.939Z,941.76
2019-03-03T05:00:33.853Z,941.73
2019-03-03T05:01:33.737Z,941.75
2019-03-03T05:02:33.639Z,941.81
2019-03-03T05:03:33.544Z,941.75
2019-03-03T05:04:33.441Z,941.78
2019-03-03T05:05:33.351Z,941.78
2019-03-03T05:06:33.260Z,941.76
2019-03-03T05:07:33.151Z,941.74
2019-03-03T05:08:33.048Z,941.71
2019-03-03T05:09:32.947Z,941.61
2019-03-03T05:10:32.857Z,941.64
2019-03-03T05:11:32.773Z,941.70
2019-03-03T05:12:32.653Z,941.68
2019-03-03T05:13:32.555Z,941.62
2019-03-03T05:14:32.454Z,941.61
2019-03-03T05:15:32.362Z,941.60
2019-03-03T05:16:32.274Z,941.65
2019-03-03T05:17:32.166Z,941.58
2019-03-03T05:18:32.063Z,941.58
2019-03-03T05:19:31.964Z,941.57
2019-03-03T05:20:31.874Z,941.51
2019-03-03T05:21:31.805Z,941.47
2019-03-03T05:22:31.668Z,941.52
2019-03-03T05:23:31.570Z,941.54
2019-03-03T05:24:34.525Z,941.50
2019-03-03T05:25:31.372Z,941.57
2019-03-03T05:26:31.292Z,941.61
2019-03-03T05:27:31.175Z,941.65
2019-03-03T05:28:31.073Z,941.63
2019-03-03T05:29:30.975Z,941.66
2019-03-03T05:30:30.878Z,941.65
2019-03-03T05:31:30.794Z,941.65
2019-03-03T05:32:30.683Z,941.63
2019-03-03T05:33:30.583Z,941.63
2019-03-03T05:34:30.483Z,941.61
2019-03-03T05:35:30.384Z,941.68
2019-03-03T05:36:30.301Z,941.67
2019-03-03T05:37:30.184Z,941.60
2019-03-03T05:38:30.087Z,941.62
2019-03-03T05:39:30.093Z,941.57
2019-03-03T05:40:29.889Z,941.53
2019-03-03T05:41:29.811Z,941.47
2019-03-03T05:42:29.691Z,941.53
2019-03-03T05:43:29.595Z,941.55
2019-03-03T05:44:29.497Z,941.51
2019-03-03T05:45:29.394Z,941.46
2019-03-03T05:46:29.311Z,941.44
2019-03-03T05:47:29.201Z,941.44
2019-03-03T05:48:29.100Z,941.45
2019-03-03T05:49:29.002Z,941.43
2019-03-03T05:50:28.904Z,941.40
2019-03-03T05:51:28.828Z,941.37
2019-03-03T05:52:28.706Z,941.37
2019-03-03T05:53:28.607Z,941.34
2019-03-03T05:54:28.507Z,941.37
2019-03-03T05:55:28.410Z,941.33
2019-03-03T05:56:28.326Z,941.36
2019-03-03T05:57:28.209Z,941.37
2019-03-03T05:58:28.110Z,941.32
2019-03-03T05:59:28.016Z,941.32
2019-03-03T06:00:28.022Z,941.34
2019-03-03T06:01:27.831Z,941.37
2019-03-03T06:02:27.714Z,941.39
2019-03-03T06:03:27.615Z,941.40
2019-03-03T06:04:27.517Z,941.37
2019-03-03T06:05:27.417Z,941.40
2019-03-03T06:06:27.337Z,941.43
2019-03-03T06:07:27.328Z,941.44
2019-03-03T06:08:27.120Z,941.43
2019-03-03T06:09:27.024Z,941.48
2019-03-03T06:10:26.930Z,941.48
2019-03-03T06:11:26.842Z,941.49
2019-03-03T06:12:26.729Z,941.45
2019-03-03T06:13:26.628Z,941.48
2019-03-03T06:14:26.637Z,941.49
2019-03-03T06:15:26.431Z,941.44
2019-03-03T06:16:26.351Z,941.48
2019-03-03T06:17:26.236Z,941.50
2019-03-03T06:18:26.167Z,941.44
2019-03-03T06:19:26.034Z,941.45
2019-03-03T06:20:27.827Z,941.47
2019-03-03T06:21:25.962Z,941.38
2019-03-03T06:22:25.739Z,941.45
2019-03-03T06:23:25.640Z,941.45
2019-03-03T06:24:25.543Z,941.45
2019-03-03T06:25:25.449Z,941.43
2019-03-03T06:26:25.359Z,941.51
2019-03-03T06:27:25.249Z,941.53
2019-03-03T06:28:25.151Z,941.55
2019-03-03T06:29:25.063Z,941.56
2019-03-03T06:30:24.949Z,941.49
2019-03-03T06:31:24.871Z,941.50
2019-03-03T06:32:24.753Z,941.49
2019-03-03T06:33:24.657Z,941.50
2019-03-03T06:34:24.555Z,941.46
2019-03-03T06:35:24.458Z,941.46
2019-03-03T06:36:24.377Z,941.46
2019-03-03T06:37:24.275Z,941.44
2019-03-03T06:38:24.162Z,941.47
2019-03-03T06:39:24.065Z,941.50
2019-03-03T06:40:23.966Z,941.40
2019-03-03T06:41:23.881Z,941.44
2019-03-03T06:42:23.773Z,941.46
2019-03-03T06:43:23.675Z,941.49
2019-03-03T06:44:23.569Z,941.49
2019-03-03T06:45:23.471Z,941.54
2019-03-03T06:46:23.375Z,941.45
2019-03-03T06:47:23.293Z,941.47
2019-03-03T06:48:23.178Z,941.47
2019-03-03T06:49:23.076Z,941.42
2019-03-03T06:50:22.981Z,941.44
2019-03-03T06:51:22.896Z,941.47
2019-03-03T06:52:22.781Z,941.42
2019-03-03T06:53:22.684Z,941.42
2019-03-03T06:54:22.585Z,941.37
2019-03-03T06:55:22.488Z,941.32
2019-03-03T06:56:22.395Z,941.27
2019-03-03T06:57:22.709Z,941.25
2019-03-03T06:58:22.199Z,941.22
2019-03-03T06:59:22.092Z,941.25
2019-03-03T07:00:21.993Z,941.20
2019-03-03T07:01:21.900Z,941.25
2019-03-03T07:02:21.814Z,941.28
2019-03-03T07:03:21.696Z,941.29
2019-03-03T07:04:21.703Z,941.24
2019-03-03T07:05:21.499Z,941.17
2019-03-03T07:06:21.403Z,941.27
2019-03-03T07:07:21.323Z,941.27
2019-03-03T07:08:21.207Z,941.29
2019-03-03T07:09:21.107Z,941.24
2019-03-03T07:10:21.131Z,941.30
2019-03-03T07:11:20.910Z,941.28
2019-03-03T07:12:20.825Z,941.19
2019-03-03T07:13:20.709Z,941.22
2019-03-03T07:14:20.614Z,941.21
2019-03-03T07:15:20.512Z,941.20
2019-03-03T07:16:20.416Z,941.15
2019-03-03T07:17:20.330Z,941.20
2019-03-03T07:18:20.325Z,941.16
2019-03-03T07:19:20.120Z,941.12
2019-03-03T07:20:20.023Z,941.18
2019-03-03T07:21:19.925Z,941.11
2019-03-03T07:22:19.837Z,941.21
2019-03-03T07:23:19.723Z,941.22
2019-03-03T07:24:19.754Z,941.21
2019-03-03T07:25:19.529Z,941.22
2019-03-03T07:26:19.429Z,941.18
2019-03-03T07:27:19.350Z,941.12
2019-03-03T07:28:19.231Z,941.12
2019-03-03T07:29:19.133Z,941.18
2019-03-03T07:30:19.035Z,941.17
2019-03-03T07:31:18.938Z,941.13
2019-03-03T07:32:18.854Z,941.23
2019-03-03T07:33:18.746Z,941.18
2019-03-03T07:34:18.643Z,941.18
2019-03-03T07:35:18.546Z,941.20
2019-03-03T07:36:18.465Z,941.19
2019-03-03T07:37:18.365Z,941.25
2019-03-03T07:38:18.247Z,941.31
2019-03-03T07:39:18.152Z,941.27
2019-03-03T07:40:18.055Z,941.31
2019-03-03T07:41:17.954Z,941.31
2019-03-03T07:42:17.872Z,941.35
2019-03-03T07:43:17.758Z,941.36
2019-03-03T07:44:17.660Z,941.35
2019-03-03T07:45:17.563Z,941.37
2019-03-03T07:46:17.461Z,941.42
2019-03-03T07:47:17.383Z,941.36
2019-03-03T07:48:17.266Z,941.36
2019-03-03T07:49:17.170Z,941.40
2019-03-03T07:50:17.069Z,941.35
2019-03-03T07:51:16.971Z,941.34
2019-03-03T07:52:16.894Z,941.37
2019-03-03T07:53:16.773Z,941.35
2019-03-03T07:54:16.679Z,941.26
2019-03-03T07:55:16.580Z,941.30
2019-03-03T07:56:16.483Z,941.29
2019-03-03T07:57:16.399Z,941.35
2019-03-03T07:58:16.284Z,941.35
2019-03-03T07:59:16.192Z,941.32
2019-03-03T08:00:16.093Z,941.28
2019-03-03T08:01:15.990Z,941.30
2019-03-03T08:02:15.907Z,941.33
2019-03-03T08:03:15.794Z,941.33
2019-03-03T08:04:15.710Z,941.35
2019-03-03T08:05:15.597Z,941.37
2019-03-03T08:06:15.498Z,941.35
2019-03-03T08:07:15.419Z,941.36
2019-03-03T08:08:15.311Z,941.36
2019-03-03T08:09:15.205Z,941.39
2019-03-03T08:10:15.105Z,941.30
2019-03-03T08:11:15.010Z,941.33
2019-03-03T08:12:14.931Z,941.36
2019-03-03T08:13:14.812Z,941.35
2019-03-03T08:14:14.713Z,941.32
2019-03-03T08:15:14.618Z,941.35
2019-03-03T08:16:14.524Z,941.34
2019-03-03T08:17:14.436Z,941.32
2019-03-03T08:18:14.327Z,941.31
2019-03-03T08:19:14.224Z,941.29
2019-03-03T08:20:14.128Z,941.20
2019-03-03T08:21:14.035Z,941.22
2019-03-03T08:22:13.950Z,941.25
2019-03-03T08:23:13.832Z,941.20
2019-03-03T08:24:13.737Z,941.22
2019-03-03T08:25:13.638Z,941.15
2019-03-03T08:26:13.539Z,941.15
2019-03-03T08:27:13.456Z,941.16
2019-03-03T08:28:13.345Z,941.12
2019-03-03T08:29:13.243Z,941.10
2019-03-03T08:30:13.147Z,941.09
2019-03-03T08:31:13.050Z,941.17
2019-03-03T08:32:12.968Z,941.17
2019-03-03T08:33:12.864Z,941.08
2019-03-03T08:34:12.753Z,941.07
2019-03-03T08:35:12.657Z,941.07
2019-03-03T08:36:12.564Z,941.03
2019-03-03T08:37:12.464Z,940.96
2019-03-03T08:38:12.379Z,940.98
2019-03-03T08:39:12.267Z,941.01
2019-03-03T08:40:12.167Z,941.04
2019-03-03T08:41:12.184Z,941.07
2019-03-03T08:42:11.974Z,941.14
2019-03-03T08:43:11.892Z,941.07
2019-03-03T08:44:11.778Z,941.09
2019-03-03T08:45:11.680Z,941.08
2019-03-03T08:46:11.584Z,941.10
2019-03-03T08:47:11.486Z,941.12
2019-03-03T08:48:11.403Z,941.17
2019-03-03T08:49:11.286Z,941.16
2019-03-03T08:50:11.190Z,941.21
2019-03-03T08:51:11.091Z,941.23
2019-03-03T08:52:10.997Z,941.25
2019-03-03T08:53:10.910Z,941.17
2019-03-03T08:54:10.797Z,941.21
2019-03-03T08:55:10.812Z,941.23
2019-03-03T08:56:10.601Z,941.21
2019-03-03T08:57:10.506Z,941.17
2019-03-03T08:58:10.422Z,941.21
2019-03-03T08:59:10.307Z,941.28
2019-03-03T09:00:10.209Z,941.28
2019-03-03T09:01:10.115Z,941.31
2019-03-03T09:02:10.122Z,941.32
2019-03-03T09:03:09.932Z,941.30
2019-03-03T09:04:09.818Z,941.34
2019-03-03T09:05:09.719Z,941.27
2019-03-03T09:06:09.622Z,941.33
2019-03-03T09:07:09.525Z,941.36
2019-03-03T09:08:09.444Z,941.31
2019-03-03T09:09:09.442Z,941.36
2019-03-03T09:10:09.233Z,941.37
2019-03-03T09:11:09.134Z,941.41
2019-03-03T09:12:09.052Z,941.25
2019-03-03T09:13:08.952Z,941.34
2019-03-03T09:14:08.838Z,941.31
2019-03-03T09:15:08.743Z,941.40
2019-03-03T09:16:08.753Z,941.32
2019-03-03T09:17:08.547Z,941.41
2019-03-03T09:18:08.467Z,941.43
2019-03-03T09:19:08.350Z,941.24
2019-03-03T09:20:08.254Z,941.34
2019-03-03T09:21:08.157Z,941.43
2019-03-03T09:22:08.056Z,941.42
2019-03-03T09:23:08.085Z,941.43
2019-03-03T09:24:07.867Z,941.33
2019-03-03T09:25:07.762Z,941.39
2019-03-03T09:26:07.666Z,941.45
2019-03-03T09:27:07.570Z,941.30
2019-03-03T09:28:07.490Z,941.52
2019-03-03T09:29:07.374Z,941.42
2019-03-03T09:30:07.383Z,941.42
2019-03-03T09:31:07.177Z,941.47
2019-03-03T09:32:07.079Z,941.49
2019-03-03T09:33:06.996Z,941.39
2019-03-03T09:34:06.883Z,941.41
2019-03-03T09:35:06.784Z,941.53
2019-03-03T09:36:06.685Z,941.45
2019-03-03T09:37:06.695Z,941.50
2019-03-03T09:38:06.506Z,941.45
2019-03-03T09:39:06.395Z,941.58
2019-03-03T09:40:09.359Z,941.46
2019-03-03T09:41:06.199Z,941.53
2019-03-03T09:42:06.106Z,941.38
2019-03-03T09:43:06.018Z,941.49
2019-03-03T09:44:06.010Z,941.49
2019-03-03T09:45:05.805Z,941.52
2019-03-03T09:46:05.710Z,941.47
2019-03-03T09:47:05.611Z,941.56
2019-03-03T09:48:05.529Z,941.53
2019-03-03T09:49:05.414Z,941.56
2019-03-03T09:50:05.319Z,941.48
2019-03-03T09:51:05.323Z,941.58
2019-03-03T09:52:05.170Z,941.44
2019-03-03T09:53:05.040Z,941.59
2019-03-03T09:54:04.986Z,941.48
2019-03-03T09:55:04.832Z,941.46
2019-03-03T09:56:04.730Z,941.45
2019-03-03T09:57:04.761Z,941.54
2019-03-03T09:58:04.551Z,941.52
2019-03-03T09:59:04.436Z,941.50
2019-03-03T10:00:04.342Z,941.51
2019-03-03T10:01:04.244Z,941.47
2019-03-03T10:02:04.142Z,941.52
2019-03-03T10:03:04.062Z,941.52
2019-03-03T10:04:03.949Z,941.48
2019-03-03T10:05:03.958Z,941.43
2019-03-03T10:06:03.752Z,941.50
2019-03-03T10:07:03.653Z,941.44
2019-03-03T10:08:03.573Z,941.37
2019-03-03T10:09:03.462Z,941.43
2019-03-03T10:10:03.360Z,941.41
2019-03-03T10:11:03.389Z,941.42
2019-03-03T10:12:03.167Z,941.38
2019-03-03T10:13:03.082Z,941.40
2019-03-03T10:14:02.969Z,941.42
2019-03-03T10:15:02.871Z,941.45
2019-03-03T10:16:02.773Z,941.43
2019-03-03T10:17:02.677Z,941.38
2019-03-03T10:18:02.595Z,941.40
2019-03-03T10:19:07.233Z,941.46
2019-03-03T10:20:02.385Z,941.48
2019-03-03T10:21:03.255Z,941.39
2019-03-03T10:22:02.188Z,941.39
2019-03-03T10:23:02.108Z,941.40
2019-03-03T10:24:01.991Z,941.34
2019-03-03T10:25:01.896Z,941.34
2019-03-03T10:26:01.796Z,941.34
2019-03-03T10:27:01.703Z,941.31
2019-03-03T10:28:01.618Z,941.31
2019-03-03T10:29:01.504Z,941.29
2019-03-03T10:30:01.406Z,941.28
2019-03-03T10:31:01.308Z,941.27
2019-03-03T10:32:01.211Z,941.22
2019-03-03T10:33:01.116Z,941.22
2019-03-03T10:34:01.032Z,941.23
2019-03-03T10:35:00.922Z,941.17
2019-03-03T10:36:00.823Z,941.15
2019-03-03T10:37:00.728Z,941.15
2019-03-03T10:38:00.630Z,941.14
2019-03-03T10:39:00.547Z,941.09
2019-03-03T10:40:00.430Z,941.14
2019-03-03T10:41:00.333Z,941.09
2019-03-03T10:42:00.235Z,941.13
2019-03-03T10:43:00.140Z,941.15
2019-03-03T10:44:00.057Z,941.11
2019-03-03T10:44:59.942Z,941.14
2019-03-03T10:45:59.844Z,941.18
2019-03-03T10:46:59.751Z,941.16
2019-03-03T10:47:59.653Z,941.22
2019-03-03T10:48:59.571Z,941.18
2019-03-03T10:49:59.458Z,941.15
2019-03-03T10:50:59.357Z,941.13
2019-03-03T10:51:59.262Z,941.14
2019-03-03T10:52:59.164Z,941.10
2019-03-03T10:53:59.086Z,941.12
2019-03-03T10:54:58.969Z,941.10
2019-03-03T10:55:58.872Z,941.07
2019-03-03T10:56:58.772Z,941.12
2019-03-03T10:57:58.676Z,941.12
2019-03-03T10:58:58.601Z,941.11
2019-03-03T10:59:58.496Z,941.11
2019-03-03T11:00:58.383Z,941.10
2019-03-03T11:01:58.287Z,941.09
2019-03-03T11:02:58.192Z,941.12
2019-03-03T11:03:58.109Z,941.13
2019-03-03T11:04:57.997Z,941.09
2019-03-03T11:05:57.897Z,941.14
2019-03-03T11:06:57.807Z,941.10
2019-03-03T11:07:57.701Z,941.09
2019-03-03T11:08:57.618Z,941.11
2019-03-03T11:09:57.504Z,941.14
2019-03-03T11:10:57.925Z,941.11
2019-03-03T11:11:57.317Z,941.11
2019-03-03T11:12:57.214Z,941.15
2019-03-03T11:13:57.203Z,941.07
2019-03-03T11:14:57.026Z,941.09
2019-03-03T11:15:56.920Z,941.08
2019-03-03T11:16:56.826Z,941.08
2019-03-03T11:17:56.729Z,941.07
2019-03-03T11:18:56.654Z,941.10
2019-03-03T11:19:56.532Z,941.15
2019-03-03T11:20:56.435Z,941.04
2019-03-03T11:21:56.341Z,941.03
2019-03-03T11:22:56.243Z,941.09
2019-03-03T11:23:56.162Z,941.08
2019-03-03T11:24:56.050Z,941.10
2019-03-03T11:25:55.951Z,941.09
2019-03-03T11:26:55.854Z,941.05
2019-03-03T11:27:55.861Z,941.08
2019-03-03T11:28:55.685Z,941.07
2019-03-03T11:29:55.559Z,941.09
2019-03-03T11:30:55.465Z,941.07
2019-03-03T11:31:55.364Z,941.01
2019-03-03T11:32:55.269Z,941.05
2019-03-03T11:33:55.190Z,941.04
2019-03-03T11:34:55.178Z,941.07
2019-03-03T11:35:54.979Z,941.05
2019-03-03T11:36:54.878Z,941.03
2019-03-03T11:37:54.781Z,941.03
2019-03-03T11:38:54.717Z,940.99
2019-03-03T11:39:54.591Z,940.91
2019-03-03T11:40:54.494Z,940.99
2019-03-03T11:41:54.496Z,941.02
2019-03-03T11:42:54.294Z,941.02
2019-03-03T11:43:54.214Z,940.96
2019-03-03T11:44:54.100Z,941.00
2019-03-03T11:45:54.005Z,940.95
2019-03-03T11:46:53.906Z,940.98
2019-03-03T11:48:03.654Z,941.02
2019-03-03T11:48:53.838Z,940.94
2019-03-03T11:49:53.613Z,940.97
2019-03-03T11:50:53.519Z,940.95
2019-03-03T11:51:53.420Z,940.93
2019-03-03T11:52:53.324Z,940.96
2019-03-03T11:53:53.239Z,940.95
2019-03-03T11:54:53.128Z,940.86
2019-03-03T11:55:53.142Z,940.91
2019-03-03T11:56:52.936Z,940.86
2019-03-03T11:57:52.850Z,940.86
2019-03-03T11:58:52.754Z,940.82
2019-03-03T11:59:52.643Z,940.92
2019-03-03T12:00:52.543Z,940.86
2019-03-03T12:01:52.449Z,940.89
2019-03-03T12:02:54.221Z,940.82
2019-03-03T12:03:52.269Z,940.82
2019-03-03T12:04:52.420Z,940.76
2019-03-03T12:05:52.058Z,940.79
2019-03-03T12:06:51.963Z,940.76
2019-03-03T12:07:51.863Z,940.76
2019-03-03T12:08:51.767Z,940.78
2019-03-03T12:09:51.685Z,940.74
2019-03-03T12:10:51.681Z,940.75
2019-03-03T12:11:51.474Z,940.72
2019-03-03T12:12:51.379Z,940.73
2019-03-03T12:13:51.286Z,940.76
2019-03-03T12:14:51.214Z,940.74
2019-03-03T12:15:51.086Z,940.75
2019-03-03T12:16:51.002Z,940.77
2019-03-03T12:17:51.005Z,940.76
2019-03-03T12:18:50.799Z,940.74
2019-03-03T12:19:50.713Z,940.77
2019-03-03T12:20:50.603Z,940.59
2019-03-03T12:21:50.504Z,940.69
2019-03-03T12:22:50.411Z,940.64
2019-03-03T12:23:50.316Z,940.67
2019-03-03T12:24:50.339Z,940.64
2019-03-03T12:25:50.115Z,940.63
2019-03-03T12:26:50.021Z,940.66